sensor_id;sensor_type;location;lat;lon;timestamp;temperature;humidity
62573;DHT22;48626;51.678;5.806;2023-06-22T00:01:59;21.20;99.90
62573;DHT22;48626;51.678;5.806;2023-06-22T00:04:24;21.20;99.90
62573;DHT22;48626;51.678;5.806;2023-06-22T00:06:50;21.20;99.90
62573;DHT22;48626;51.678;5.806;2023-06-22T00:09:17;21.20;99.90
62573;DHT22;48626;51.678;5.806;2023-06-22T00:11:43;21.20;99.90
62573;DHT22;48626;51.678;5.806;2023-06-22T00:14:09;21.10;99.90
62573;DHT22;48626;51.678;5.806;2023-06-22T00:16:35;21.10;99.90
62573;DHT22;48626;51.678;5.806;2023-06-22T00:19:02;21.10;99.90
62573;DHT22;48626;51.678;5.806;2023-06-22T00:21:29;21.10;99.90
62573;DHT22;48626;51.678;5.806;2023-06-22T00:23:55;21.00;99.90
62573;DHT22;48626;51.678;5.806;2023-06-22T00:26:21;21.00;99.90
62573;DHT22;48626;51.678;5.806;2023-06-22T00:28:47;20.90;99.90
62573;DHT22;48626;51.678;5.806;2023-06-22T00:31:13;20.90;99.90
62573;DHT22;48626;51.678;5.806;2023-06-22T00:33:39;20.90;99.90
62573;DHT22;48626;51.678;5.806;2023-06-22T00:36:05;20.80;99.90
62573;DHT22;48626;51.678;5.806;2023-06-22T00:38:33;20.70;99.90
62573;DHT22;48626;51.678;5.806;2023-06-22T00:40:59;20.70;99.90
62573;DHT22;48626;51.678;5.806;2023-06-22T00:43:25;20.60;99.90
62573;DHT22;48626;51.678;5.806;2023-06-22T00:45:50;20.60;99.90
62573;DHT22;48626;51.678;5.806;2023-06-22T00:48:16;20.60;99.90
62573;DHT22;48626;51.678;5.806;2023-06-22T00:50:42;20.60;99.90
62573;DHT22;48626;51.678;5.806;2023-06-22T00:53:09;20.60;99.90
62573;DHT22;48626;51.678;5.806;2023-06-22T00:55:42;20.60;99.90
62573;DHT22;48626;51.678;5.806;2023-06-22T00:58:18;20.60;99.90
62573;DHT22;48626;51.678;5.806;2023-06-22T01:00:47;20.50;99.90
62573;DHT22;48626;51.678;5.806;2023-06-22T01:03:13;20.50;99.90
62573;DHT22;48626;51.678;5.806;2023-06-22T01:05:39;20.50;99.90
62573;DHT22;48626;51.678;5.806;2023-06-22T01:08:41;20.40;99.90
62573;DHT22;48626;51.678;5.806;2023-06-22T01:11:25;20.40;99.90
62573;DHT22;48626;51.678;5.806;2023-06-22T01:14:18;20.30;99.90
62573;DHT22;48626;51.678;5.806;2023-06-22T01:16:47;20.30;99.90
62573;DHT22;48626;51.678;5.806;2023-06-22T01:19:29;20.20;99.90
62573;DHT22;48626;51.678;5.806;2023-06-22T01:21:58;20.20;99.90
62573;DHT22;48626;51.678;5.806;2023-06-22T01:24:48;20.20;99.90
62573;DHT22;48626;51.678;5.806;2023-06-22T01:29:59;20.10;99.90
62573;DHT22;48626;51.678;5.806;2023-06-22T01:32:34;20.10;99.90
62573;DHT22;48626;51.678;5.806;2023-06-22T01:35:04;20.10;99.90
62573;DHT22;48626;51.678;5.806;2023-06-22T01:37:31;20.00;99.90
62573;DHT22;48626;51.678;5.806;2023-06-22T01:40:01;20.10;99.90
62573;DHT22;48626;51.678;5.806;2023-06-22T01:42:30;20.10;99.90
62573;DHT22;48626;51.678;5.806;2023-06-22T01:44:57;20.10;99.90
62573;DHT22;48626;51.678;5.806;2023-06-22T01:47:26;20.00;99.90
62573;DHT22;48626;51.678;5.806;2023-06-22T01:49:53;20.10;99.90
62573;DHT22;48626;51.678;5.806;2023-06-22T01:52:19;20.00;99.90
62573;DHT22;48626;51.678;5.806;2023-06-22T01:54:46;20.00;99.90
62573;DHT22;48626;51.678;5.806;2023-06-22T01:57:12;20.00;99.90
62573;DHT22;48626;51.678;5.806;2023-06-22T02:00:02;20.00;99.90
62573;DHT22;48626;51.678;5.806;2023-06-22T02:02:36;20.00;99.90
62573;DHT22;48626;51.678;5.806;2023-06-22T02:05:07;20.00;99.90
62573;DHT22;48626;51.678;5.806;2023-06-22T02:07:41;19.90;99.90
62573;DHT22;48626;51.678;5.806;2023-06-22T02:10:10;19.90;99.90
62573;DHT22;48626;51.678;5.806;2023-06-22T02:12:47;19.90;99.90
62573;DHT22;48626;51.678;5.806;2023-06-22T02:15:13;19.90;99.90
62573;DHT22;48626;51.678;5.806;2023-06-22T02:17:40;19.90;99.90
62573;DHT22;48626;51.678;5.806;2023-06-22T02:20:12;19.90;99.90
62573;DHT22;48626;51.678;5.806;2023-06-22T02:22:38;19.90;99.90
62573;DHT22;48626;51.678;5.806;2023-06-22T02:25:04;19.80;99.90
62573;DHT22;48626;51.678;5.806;2023-06-22T02:27:30;19.80;99.90
62573;DHT22;48626;51.678;5.806;2023-06-22T02:29:57;19.80;99.90
62573;DHT22;48626;51.678;5.806;2023-06-22T02:32:22;19.80;99.90
62573;DHT22;48626;51.678;5.806;2023-06-22T02:34:48;19.80;99.90
62573;DHT22;48626;51.678;5.806;2023-06-22T02:37:14;19.80;99.90
62573;DHT22;48626;51.678;5.806;2023-06-22T02:39:40;19.80;99.90
62573;DHT22;48626;51.678;5.806;2023-06-22T02:42:06;19.70;99.90
62573;DHT22;48626;51.678;5.806;2023-06-22T02:44:32;19.70;99.90
62573;DHT22;48626;51.678;5.806;2023-06-22T02:46:58;19.70;99.90
62573;DHT22;48626;51.678;5.806;2023-06-22T02:49:24;19.70;99.90
62573;DHT22;48626;51.678;5.806;2023-06-22T02:51:50;19.70;99.90
62573;DHT22;48626;51.678;5.806;2023-06-22T02:54:16;19.70;99.90
62573;DHT22;48626;51.678;5.806;2023-06-22T02:56:47;19.60;99.90
62573;DHT22;48626;51.678;5.806;2023-06-22T02:59:13;19.60;99.90
62573;DHT22;48626;51.678;5.806;2023-06-22T03:01:39;19.60;99.90
62573;DHT22;48626;51.678;5.806;2023-06-22T03:04:09;19.50;99.90
62573;DHT22;48626;51.678;5.806;2023-06-22T03:06:37;19.50;99.90
62573;DHT22;48626;51.678;5.806;2023-06-22T03:09:06;19.50;99.90
62573;DHT22;48626;51.678;5.806;2023-06-22T03:11:33;19.40;99.90
62573;DHT22;48626;51.678;5.806;2023-06-22T03:14:00;19.40;99.90
62573;DHT22;48626;51.678;5.806;2023-06-22T03:16:26;19.40;99.90
62573;DHT22;48626;51.678;5.806;2023-06-22T03:18:52;19.30;99.90
62573;DHT22;48626;51.678;5.806;2023-06-22T03:21:22;19.30;99.90
62573;DHT22;48626;51.678;5.806;2023-06-22T03:26:23;19.20;99.90
62573;DHT22;48626;51.678;5.806;2023-06-22T03:28:52;19.10;99.90
62573;DHT22;48626;51.678;5.806;2023-06-22T03:31:17;19.10;99.90
62573;DHT22;48626;51.678;5.806;2023-06-22T03:33:47;19.10;99.90
62573;DHT22;48626;51.678;5.806;2023-06-22T03:36:14;19.00;99.90
62573;DHT22;48626;51.678;5.806;2023-06-22T03:38:45;19.00;99.90
62573;DHT22;48626;51.678;5.806;2023-06-22T03:41:10;19.00;99.90
62573;DHT22;48626;51.678;5.806;2023-06-22T03:43:36;19.00;99.90
62573;DHT22;48626;51.678;5.806;2023-06-22T03:46:02;19.00;99.90
62573;DHT22;48626;51.678;5.806;2023-06-22T03:48:27;19.00;99.90
62573;DHT22;48626;51.678;5.806;2023-06-22T03:50:53;19.00;99.90
62573;DHT22;48626;51.678;5.806;2023-06-22T03:53:19;18.90;99.90
62573;DHT22;48626;51.678;5.806;2023-06-22T03:55:49;18.90;99.90
62573;DHT22;48626;51.678;5.806;2023-06-22T03:58:16;18.90;99.90
62573;DHT22;48626;51.678;5.806;2023-06-22T04:00:45;18.90;99.90
62573;DHT22;48626;51.678;5.806;2023-06-22T04:03:12;18.90;99.90
62573;DHT22;48626;51.678;5.806;2023-06-22T04:05:39;18.90;99.90
62573;DHT22;48626;51.678;5.806;2023-06-22T04:08:05;18.90;99.90
62573;DHT22;48626;51.678;5.806;2023-06-22T04:10:30;18.90;99.90
62573;DHT22;48626;51.678;5.806;2023-06-22T04:12:56;18.90;99.90
62573;DHT22;48626;51.678;5.806;2023-06-22T04:15:22;18.90;99.90
62573;DHT22;48626;51.678;5.806;2023-06-22T04:17:47;18.90;99.90
62573;DHT22;48626;51.678;5.806;2023-06-22T04:20:13;18.90;99.90
62573;DHT22;48626;51.678;5.806;2023-06-22T04:22:39;18.90;99.90
62573;DHT22;48626;51.678;5.806;2023-06-22T04:25:05;19.00;99.90
62573;DHT22;48626;51.678;5.806;2023-06-22T04:27:33;19.00;99.90
62573;DHT22;48626;51.678;5.806;2023-06-22T04:30:03;19.00;99.90
62573;DHT22;48626;51.678;5.806;2023-06-22T04:32:29;19.00;99.90
62573;DHT22;48626;51.678;5.806;2023-06-22T04:34:55;19.00;99.90
62573;DHT22;48626;51.678;5.806;2023-06-22T04:37:21;19.10;99.90
62573;DHT22;48626;51.678;5.806;2023-06-22T04:39:49;19.10;99.90
62573;DHT22;48626;51.678;5.806;2023-06-22T04:42:15;19.10;99.90
62573;DHT22;48626;51.678;5.806;2023-06-22T04:44:41;19.20;99.90
62573;DHT22;48626;51.678;5.806;2023-06-22T04:47:08;19.20;99.90
62573;DHT22;48626;51.678;5.806;2023-06-22T04:49:35;19.20;99.90
62573;DHT22;48626;51.678;5.806;2023-06-22T04:52:03;19.20;99.90
62573;DHT22;48626;51.678;5.806;2023-06-22T04:54:29;19.30;99.90
62573;DHT22;48626;51.678;5.806;2023-06-22T04:56:59;19.30;99.90
62573;DHT22;48626;51.678;5.806;2023-06-22T04:59:27;19.40;99.90
62573;DHT22;48626;51.678;5.806;2023-06-22T05:02:00;19.40;99.90
62573;DHT22;48626;51.678;5.806;2023-06-22T05:04:27;19.40;99.90
62573;DHT22;48626;51.678;5.806;2023-06-22T05:06:59;19.50;99.90
62573;DHT22;48626;51.678;5.806;2023-06-22T05:09:29;19.50;99.90
62573;DHT22;48626;51.678;5.806;2023-06-22T05:11:55;19.60;99.90
62573;DHT22;48626;51.678;5.806;2023-06-22T05:14:22;19.70;99.90
62573;DHT22;48626;51.678;5.806;2023-06-22T05:16:48;19.80;99.90
62573;DHT22;48626;51.678;5.806;2023-06-22T05:19:14;19.90;99.90
62573;DHT22;48626;51.678;5.806;2023-06-22T05:21:40;20.00;99.90
62573;DHT22;48626;51.678;5.806;2023-06-22T05:24:06;20.00;99.90
62573;DHT22;48626;51.678;5.806;2023-06-22T05:26:33;20.20;99.90
62573;DHT22;48626;51.678;5.806;2023-06-22T05:29:00;20.30;99.90
62573;DHT22;48626;51.678;5.806;2023-06-22T05:31:27;20.40;99.90
62573;DHT22;48626;51.678;5.806;2023-06-22T05:33:54;20.50;99.90
62573;DHT22;48626;51.678;5.806;2023-06-22T05:36:20;20.70;99.90
62573;DHT22;48626;51.678;5.806;2023-06-22T05:38:47;20.80;99.90
62573;DHT22;48626;51.678;5.806;2023-06-22T05:41:12;20.90;99.90
62573;DHT22;48626;51.678;5.806;2023-06-22T05:43:39;21.00;99.90
62573;DHT22;48626;51.678;5.806;2023-06-22T05:46:05;21.20;99.90
62573;DHT22;48626;51.678;5.806;2023-06-22T05:48:31;21.40;99.90
62573;DHT22;48626;51.678;5.806;2023-06-22T05:50:57;21.50;99.90
62573;DHT22;48626;51.678;5.806;2023-06-22T05:53:23;21.60;99.90
62573;DHT22;48626;51.678;5.806;2023-06-22T05:55:49;21.70;99.90
62573;DHT22;48626;51.678;5.806;2023-06-22T05:58:15;21.70;99.90
62573;DHT22;48626;51.678;5.806;2023-06-22T06:00:41;21.80;99.90
62573;DHT22;48626;51.678;5.806;2023-06-22T06:03:08;21.90;99.90
62573;DHT22;48626;51.678;5.806;2023-06-22T06:05:34;21.90;99.90
62573;DHT22;48626;51.678;5.806;2023-06-22T06:08:01;22.10;99.90
62573;DHT22;48626;51.678;5.806;2023-06-22T06:10:27;22.10;99.90
62573;DHT22;48626;51.678;5.806;2023-06-22T06:12:55;22.20;99.90
62573;DHT22;48626;51.678;5.806;2023-06-22T06:15:21;22.20;99.90
62573;DHT22;48626;51.678;5.806;2023-06-22T06:17:48;22.30;99.90
62573;DHT22;48626;51.678;5.806;2023-06-22T06:20:15;22.40;99.90
62573;DHT22;48626;51.678;5.806;2023-06-22T06:22:40;22.40;99.90
62573;DHT22;48626;51.678;5.806;2023-06-22T06:25:08;22.40;99.90
62573;DHT22;48626;51.678;5.806;2023-06-22T06:27:34;22.40;99.90
62573;DHT22;48626;51.678;5.806;2023-06-22T06:29:59;22.40;99.90
62573;DHT22;48626;51.678;5.806;2023-06-22T06:32:25;22.40;99.90
62573;DHT22;48626;51.678;5.806;2023-06-22T06:34:51;22.50;99.90
62573;DHT22;48626;51.678;5.806;2023-06-22T06:37:17;22.50;99.90
62573;DHT22;48626;51.678;5.806;2023-06-22T06:39:44;22.50;99.90
62573;DHT22;48626;51.678;5.806;2023-06-22T06:42:09;22.60;99.90
62573;DHT22;48626;51.678;5.806;2023-06-22T06:44:36;22.60;99.90
62573;DHT22;48626;51.678;5.806;2023-06-22T06:47:04;22.60;99.90
62573;DHT22;48626;51.678;5.806;2023-06-22T06:49:30;22.70;99.90
62573;DHT22;48626;51.678;5.806;2023-06-22T06:51:55;22.80;99.90
62573;DHT22;48626;51.678;5.806;2023-06-22T06:54:23;22.80;99.90
62573;DHT22;48626;51.678;5.806;2023-06-22T06:56:49;22.90;99.90
62573;DHT22;48626;51.678;5.806;2023-06-22T06:59:15;22.90;99.90
62573;DHT22;48626;51.678;5.806;2023-06-22T07:01:41;23.00;99.90
62573;DHT22;48626;51.678;5.806;2023-06-22T07:04:09;23.00;99.90
62573;DHT22;48626;51.678;5.806;2023-06-22T07:06:36;23.00;99.90
62573;DHT22;48626;51.678;5.806;2023-06-22T07:09:03;23.10;99.90
62573;DHT22;48626;51.678;5.806;2023-06-22T07:11:29;23.10;99.90
62573;DHT22;48626;51.678;5.806;2023-06-22T07:13:54;23.10;99.90
62573;DHT22;48626;51.678;5.806;2023-06-22T07:16:20;23.10;99.90
62573;DHT22;48626;51.678;5.806;2023-06-22T07:18:46;23.20;99.90
62573;DHT22;48626;51.678;5.806;2023-06-22T07:21:12;23.20;99.90
62573;DHT22;48626;51.678;5.806;2023-06-22T07:23:37;23.20;99.90
62573;DHT22;48626;51.678;5.806;2023-06-22T07:26:03;23.20;99.90
62573;DHT22;48626;51.678;5.806;2023-06-22T07:28:31;23.20;99.90
62573;DHT22;48626;51.678;5.806;2023-06-22T07:31:02;23.20;99.90
62573;DHT22;48626;51.678;5.806;2023-06-22T07:33:29;23.20;99.90
62573;DHT22;48626;51.678;5.806;2023-06-22T07:35:54;23.20;99.90
62573;DHT22;48626;51.678;5.806;2023-06-22T07:38:20;23.20;99.90
62573;DHT22;48626;51.678;5.806;2023-06-22T07:40:47;23.30;99.90
62573;DHT22;48626;51.678;5.806;2023-06-22T07:43:12;23.30;99.90
62573;DHT22;48626;51.678;5.806;2023-06-22T07:45:38;23.30;99.90
62573;DHT22;48626;51.678;5.806;2023-06-22T07:48:07;23.30;99.90
62573;DHT22;48626;51.678;5.806;2023-06-22T07:50:32;23.30;99.90
62573;DHT22;48626;51.678;5.806;2023-06-22T07:52:58;23.40;99.90
62573;DHT22;48626;51.678;5.806;2023-06-22T07:55:24;23.50;99.90
62573;DHT22;48626;51.678;5.806;2023-06-22T07:57:50;23.50;99.90
62573;DHT22;48626;51.678;5.806;2023-06-22T08:00:17;23.60;99.90
62573;DHT22;48626;51.678;5.806;2023-06-22T08:02:45;23.70;99.90
62573;DHT22;48626;51.678;5.806;2023-06-22T08:05:11;23.90;99.90
62573;DHT22;48626;51.678;5.806;2023-06-22T08:07:38;24.10;99.90
62573;DHT22;48626;51.678;5.806;2023-06-22T08:10:10;24.20;99.90
62573;DHT22;48626;51.678;5.806;2023-06-22T08:12:36;24.30;99.90
62573;DHT22;48626;51.678;5.806;2023-06-22T08:15:02;24.40;99.90
62573;DHT22;48626;51.678;5.806;2023-06-22T08:17:28;24.60;99.90
62573;DHT22;48626;51.678;5.806;2023-06-22T08:19:54;24.70;99.90
62573;DHT22;48626;51.678;5.806;2023-06-22T08:22:20;24.80;99.90
62573;DHT22;48626;51.678;5.806;2023-06-22T08:24:46;24.80;99.90
62573;DHT22;48626;51.678;5.806;2023-06-22T08:27:12;24.90;99.90
62573;DHT22;48626;51.678;5.806;2023-06-22T08:29:39;24.90;99.90
62573;DHT22;48626;51.678;5.806;2023-06-22T08:32:05;25.10;99.90
62573;DHT22;48626;51.678;5.806;2023-06-22T08:34:30;25.20;99.90
62573;DHT22;48626;51.678;5.806;2023-06-22T08:36:56;25.30;99.90
62573;DHT22;48626;51.678;5.806;2023-06-22T08:39:22;25.30;99.90
62573;DHT22;48626;51.678;5.806;2023-06-22T08:41:48;25.30;99.90
62573;DHT22;48626;51.678;5.806;2023-06-22T08:44:14;25.30;99.90
62573;DHT22;48626;51.678;5.806;2023-06-22T08:46:39;25.30;99.90
62573;DHT22;48626;51.678;5.806;2023-06-22T08:49:07;25.50;99.90
62573;DHT22;48626;51.678;5.806;2023-06-22T08:51:33;25.60;99.90
62573;DHT22;48626;51.678;5.806;2023-06-22T08:53:59;25.70;99.90
62573;DHT22;48626;51.678;5.806;2023-06-22T08:56:25;25.80;99.90
62573;DHT22;48626;51.678;5.806;2023-06-22T08:58:50;25.80;99.90
62573;DHT22;48626;51.678;5.806;2023-06-22T09:01:16;25.90;99.90
62573;DHT22;48626;51.678;5.806;2023-06-22T09:03:42;26.00;99.90
62573;DHT22;48626;51.678;5.806;2023-06-22T09:06:07;26.00;99.90
62573;DHT22;48626;51.678;5.806;2023-06-22T09:08:35;26.10;99.90
62573;DHT22;48626;51.678;5.806;2023-06-22T09:11:01;26.10;99.90
62573;DHT22;48626;51.678;5.806;2023-06-22T09:13:29;26.10;99.90
62573;DHT22;48626;51.678;5.806;2023-06-22T09:15:55;26.00;99.90
62573;DHT22;48626;51.678;5.806;2023-06-22T09:18:21;25.90;99.90
62573;DHT22;48626;51.678;5.806;2023-06-22T09:20:47;25.80;99.90
62573;DHT22;48626;51.678;5.806;2023-06-22T09:23:12;25.70;99.90
62573;DHT22;48626;51.678;5.806;2023-06-22T09:25:38;25.50;99.90
62573;DHT22;48626;51.678;5.806;2023-06-22T09:28:05;25.50;99.90
62573;DHT22;48626;51.678;5.806;2023-06-22T09:30:31;25.30;99.90
62573;DHT22;48626;51.678;5.806;2023-06-22T09:32:56;25.30;99.90
62573;DHT22;48626;51.678;5.806;2023-06-22T09:35:22;25.20;99.90
62573;DHT22;48626;51.678;5.806;2023-06-22T09:37:48;25.20;99.90
62573;DHT22;48626;51.678;5.806;2023-06-22T09:40:13;25.20;99.90
62573;DHT22;48626;51.678;5.806;2023-06-22T09:42:42;25.10;99.90
62573;DHT22;48626;51.678;5.806;2023-06-22T09:45:08;25.10;99.90
62573;DHT22;48626;51.678;5.806;2023-06-22T09:47:34;25.00;99.90
62573;DHT22;48626;51.678;5.806;2023-06-22T09:50:00;25.00;99.90
62573;DHT22;48626;51.678;5.806;2023-06-22T09:52:25;24.90;99.90
62573;DHT22;48626;51.678;5.806;2023-06-22T09:54:51;24.90;99.90
62573;DHT22;48626;51.678;5.806;2023-06-22T09:57:17;24.90;99.90
62573;DHT22;48626;51.678;5.806;2023-06-22T09:59:42;24.80;99.90
62573;DHT22;48626;51.678;5.806;2023-06-22T10:02:08;24.80;99.90
62573;DHT22;48626;51.678;5.806;2023-06-22T10:04:35;24.70;99.90
62573;DHT22;48626;51.678;5.806;2023-06-22T10:07:01;24.70;99.90
62573;DHT22;48626;51.678;5.806;2023-06-22T10:09:27;24.70;99.90
62573;DHT22;48626;51.678;5.806;2023-06-22T10:11:53;24.70;99.90
62573;DHT22;48626;51.678;5.806;2023-06-22T10:14:19;24.60;99.90
62573;DHT22;48626;51.678;5.806;2023-06-22T10:16:44;24.60;99.90
62573;DHT22;48626;51.678;5.806;2023-06-22T10:19:10;24.60;99.90
62573;DHT22;48626;51.678;5.806;2023-06-22T10:21:36;24.60;99.90
62573;DHT22;48626;51.678;5.806;2023-06-22T10:24:02;24.50;99.90
62573;DHT22;48626;51.678;5.806;2023-06-22T10:26:35;24.60;99.90
62573;DHT22;48626;51.678;5.806;2023-06-22T10:29:01;24.60;99.90
62573;DHT22;48626;51.678;5.806;2023-06-22T10:31:27;24.60;99.90
62573;DHT22;48626;51.678;5.806;2023-06-22T10:33:54;24.50;99.90
62573;DHT22;48626;51.678;5.806;2023-06-22T10:36:20;24.50;99.90
62573;DHT22;48626;51.678;5.806;2023-06-22T10:38:46;24.50;99.90
62573;DHT22;48626;51.678;5.806;2023-06-22T10:41:12;24.50;99.90
62573;DHT22;48626;51.678;5.806;2023-06-22T10:43:38;24.50;99.90
62573;DHT22;48626;51.678;5.806;2023-06-22T10:46:04;24.50;99.90
62573;DHT22;48626;51.678;5.806;2023-06-22T10:48:29;24.50;99.90
62573;DHT22;48626;51.678;5.806;2023-06-22T10:50:55;24.50;99.90
62573;DHT22;48626;51.678;5.806;2023-06-22T10:53:21;24.50;99.90
62573;DHT22;48626;51.678;5.806;2023-06-22T10:55:47;24.50;99.90
62573;DHT22;48626;51.678;5.806;2023-06-22T10:58:13;24.50;99.90
62573;DHT22;48626;51.678;5.806;2023-06-22T11:00:38;24.60;99.90
62573;DHT22;48626;51.678;5.806;2023-06-22T11:03:04;24.60;99.90
62573;DHT22;48626;51.678;5.806;2023-06-22T11:05:30;24.50;99.90
62573;DHT22;48626;51.678;5.806;2023-06-22T11:07:55;24.50;99.90
62573;DHT22;48626;51.678;5.806;2023-06-22T11:10:21;24.40;99.90
62573;DHT22;48626;51.678;5.806;2023-06-22T11:12:47;24.40;99.90
62573;DHT22;48626;51.678;5.806;2023-06-22T11:15:12;24.30;99.90
62573;DHT22;48626;51.678;5.806;2023-06-22T11:17:38;24.30;99.90
62573;DHT22;48626;51.678;5.806;2023-06-22T11:20:05;24.30;99.90
62573;DHT22;48626;51.678;5.806;2023-06-22T11:22:37;24.30;99.90
62573;DHT22;48626;51.678;5.806;2023-06-22T11:25:02;24.20;99.90
62573;DHT22;48626;51.678;5.806;2023-06-22T11:27:28;24.10;99.90
62573;DHT22;48626;51.678;5.806;2023-06-22T11:29:54;24.00;99.90
62573;DHT22;48626;51.678;5.806;2023-06-22T11:32:19;23.90;99.90
62573;DHT22;48626;51.678;5.806;2023-06-22T11:34:45;23.80;99.90
62573;DHT22;48626;51.678;5.806;2023-06-22T11:37:11;23.70;99.90
62573;DHT22;48626;51.678;5.806;2023-06-22T11:39:36;23.60;99.90
62573;DHT22;48626;51.678;5.806;2023-06-22T11:42:02;23.50;99.90
62573;DHT22;48626;51.678;5.806;2023-06-22T11:44:28;23.30;99.90
62573;DHT22;48626;51.678;5.806;2023-06-22T11:46:53;23.20;99.90
62573;DHT22;48626;51.678;5.806;2023-06-22T11:49:19;23.10;99.90
62573;DHT22;48626;51.678;5.806;2023-06-22T11:51:45;23.10;99.90
62573;DHT22;48626;51.678;5.806;2023-06-22T11:54:10;23.10;99.90
62573;DHT22;48626;51.678;5.806;2023-06-22T11:56:36;23.00;99.90
62573;DHT22;48626;51.678;5.806;2023-06-22T11:59:01;22.90;99.90
62573;DHT22;48626;51.678;5.806;2023-06-22T12:01:27;22.80;99.90
62573;DHT22;48626;51.678;5.806;2023-06-22T12:03:53;22.80;99.90
62573;DHT22;48626;51.678;5.806;2023-06-22T12:06:18;22.60;99.90
62573;DHT22;48626;51.678;5.806;2023-06-22T12:08:44;22.50;99.90
62573;DHT22;48626;51.678;5.806;2023-06-22T12:11:09;22.50;99.90
62573;DHT22;48626;51.678;5.806;2023-06-22T12:13:35;22.50;99.90
62573;DHT22;48626;51.678;5.806;2023-06-22T12:16:01;22.50;99.90
62573;DHT22;48626;51.678;5.806;2023-06-22T12:18:26;22.50;99.90
62573;DHT22;48626;51.678;5.806;2023-06-22T12:20:52;22.50;99.90
62573;DHT22;48626;51.678;5.806;2023-06-22T12:23:18;22.40;99.90
62573;DHT22;48626;51.678;5.806;2023-06-22T12:25:45;22.40;99.90
62573;DHT22;48626;51.678;5.806;2023-06-22T12:28:11;22.40;99.90
62573;DHT22;48626;51.678;5.806;2023-06-22T12:30:36;22.50;99.90
62573;DHT22;48626;51.678;5.806;2023-06-22T12:33:02;22.50;99.90
62573;DHT22;48626;51.678;5.806;2023-06-22T12:35:28;22.60;99.90
62573;DHT22;48626;51.678;5.806;2023-06-22T12:37:54;22.60;99.90
62573;DHT22;48626;51.678;5.806;2023-06-22T12:40:19;22.70;99.90
62573;DHT22;48626;51.678;5.806;2023-06-22T12:42:45;22.70;99.90
62573;DHT22;48626;51.678;5.806;2023-06-22T12:45:11;22.80;99.90
62573;DHT22;48626;51.678;5.806;2023-06-22T12:47:37;22.80;99.90
62573;DHT22;48626;51.678;5.806;2023-06-22T12:50:02;22.80;99.90
62573;DHT22;48626;51.678;5.806;2023-06-22T12:52:30;22.70;99.90
62573;DHT22;48626;51.678;5.806;2023-06-22T12:54:56;22.60;99.90
62573;DHT22;48626;51.678;5.806;2023-06-22T12:57:22;22.60;99.90
62573;DHT22;48626;51.678;5.806;2023-06-22T12:59:49;22.60;99.90
62573;DHT22;48626;51.678;5.806;2023-06-22T13:02:14;22.60;99.90
62573;DHT22;48626;51.678;5.806;2023-06-22T13:04:40;22.60;99.90
62573;DHT22;48626;51.678;5.806;2023-06-22T13:07:06;22.60;99.90
62573;DHT22;48626;51.678;5.806;2023-06-22T13:09:31;22.60;99.90
62573;DHT22;48626;51.678;5.806;2023-06-22T13:11:57;22.60;99.90
62573;DHT22;48626;51.678;5.806;2023-06-22T13:14:23;22.60;99.90
62573;DHT22;48626;51.678;5.806;2023-06-22T13:16:49;22.60;99.90
62573;DHT22;48626;51.678;5.806;2023-06-22T13:19:15;22.60;99.90
62573;DHT22;48626;51.678;5.806;2023-06-22T13:21:41;22.60;99.90
62573;DHT22;48626;51.678;5.806;2023-06-22T13:24:07;22.60;99.90
62573;DHT22;48626;51.678;5.806;2023-06-22T13:26:33;22.60;99.90
62573;DHT22;48626;51.678;5.806;2023-06-22T13:28:59;22.60;99.90
62573;DHT22;48626;51.678;5.806;2023-06-22T13:31:24;22.60;99.90
62573;DHT22;48626;51.678;5.806;2023-06-22T13:33:50;22.60;99.90
62573;DHT22;48626;51.678;5.806;2023-06-22T13:36:17;22.60;99.90
62573;DHT22;48626;51.678;5.806;2023-06-22T13:38:43;22.60;99.90
62573;DHT22;48626;51.678;5.806;2023-06-22T13:41:09;22.60;99.90
62573;DHT22;48626;51.678;5.806;2023-06-22T13:43:34;22.60;99.90
62573;DHT22;48626;51.678;5.806;2023-06-22T13:46:00;22.60;99.90
62573;DHT22;48626;51.678;5.806;2023-06-22T13:48:26;22.60;99.90
62573;DHT22;48626;51.678;5.806;2023-06-22T13:50:54;22.60;99.90
62573;DHT22;48626;51.678;5.806;2023-06-22T13:53:19;22.60;99.90
62573;DHT22;48626;51.678;5.806;2023-06-22T13:55:45;22.60;99.90
62573;DHT22;48626;51.678;5.806;2023-06-22T13:58:12;22.50;99.90
62573;DHT22;48626;51.678;5.806;2023-06-22T14:00:37;22.50;99.90
62573;DHT22;48626;51.678;5.806;2023-06-22T14:03:03;22.50;99.90
62573;DHT22;48626;51.678;5.806;2023-06-22T14:05:29;22.40;99.90
62573;DHT22;48626;51.678;5.806;2023-06-22T14:07:56;22.30;99.90
62573;DHT22;48626;51.678;5.806;2023-06-22T14:10:22;22.20;99.90
62573;DHT22;48626;51.678;5.806;2023-06-22T14:12:48;21.90;99.90
62573;DHT22;48626;51.678;5.806;2023-06-22T14:15:14;21.60;99.90
62573;DHT22;48626;51.678;5.806;2023-06-22T14:17:39;21.50;99.90
62573;DHT22;48626;51.678;5.806;2023-06-22T14:20:05;21.30;99.90
62573;DHT22;48626;51.678;5.806;2023-06-22T14:22:33;21.20;99.90
62573;DHT22;48626;51.678;5.806;2023-06-22T14:25:00;21.00;99.90
62573;DHT22;48626;51.678;5.806;2023-06-22T14:27:27;20.90;99.90
62573;DHT22;48626;51.678;5.806;2023-06-22T14:29:52;20.80;99.90
62573;DHT22;48626;51.678;5.806;2023-06-22T14:32:18;20.80;99.90
62573;DHT22;48626;51.678;5.806;2023-06-22T14:34:44;20.70;99.90
62573;DHT22;48626;51.678;5.806;2023-06-22T14:37:10;20.70;99.90
62573;DHT22;48626;51.678;5.806;2023-06-22T14:39:36;20.60;99.90
62573;DHT22;48626;51.678;5.806;2023-06-22T14:42:02;20.50;99.90
62573;DHT22;48626;51.678;5.806;2023-06-22T14:44:29;20.40;99.90
62573;DHT22;48626;51.678;5.806;2023-06-22T14:46:55;20.30;99.90
62573;DHT22;48626;51.678;5.806;2023-06-22T14:49:21;20.30;99.90
62573;DHT22;48626;51.678;5.806;2023-06-22T14:51:47;20.20;99.90
62573;DHT22;48626;51.678;5.806;2023-06-22T14:54:12;20.10;99.90
62573;DHT22;48626;51.678;5.806;2023-06-22T14:56:38;20.20;99.90
62573;DHT22;48626;51.678;5.806;2023-06-22T14:59:04;20.20;99.90
62573;DHT22;48626;51.678;5.806;2023-06-22T15:01:30;20.20;99.90
62573;DHT22;48626;51.678;5.806;2023-06-22T15:03:55;20.20;99.90
62573;DHT22;48626;51.678;5.806;2023-06-22T15:06:22;20.10;99.90
62573;DHT22;48626;51.678;5.806;2023-06-22T15:08:47;20.20;99.90
62573;DHT22;48626;51.678;5.806;2023-06-22T15:11:13;20.10;99.90
62573;DHT22;48626;51.678;5.806;2023-06-22T15:13:40;20.10;99.90
62573;DHT22;48626;51.678;5.806;2023-06-22T15:16:06;20.10;99.90
62573;DHT22;48626;51.678;5.806;2023-06-22T15:18:33;20.20;99.90
62573;DHT22;48626;51.678;5.806;2023-06-22T15:21:03;20.20;99.90
62573;DHT22;48626;51.678;5.806;2023-06-22T15:23:30;20.20;99.90
62573;DHT22;48626;51.678;5.806;2023-06-22T15:25:56;20.20;99.90
62573;DHT22;48626;51.678;5.806;2023-06-22T15:28:22;20.20;99.90
62573;DHT22;48626;51.678;5.806;2023-06-22T15:30:49;20.30;99.90
62573;DHT22;48626;51.678;5.806;2023-06-22T15:33:15;20.20;99.90